createdAt,value
2022-12-20T00:00:12.934Z,22.73
2022-12-20T00:03:01.729Z,22.10
2022-12-20T00:05:49.104Z,22.98
2022-12-20T00:08:46.619Z,24.27
2022-12-20T00:11:30.339Z,24.13
2022-12-20T00:14:25.496Z,23.35
2022-12-20T00:17:14.900Z,24.25
2022-12-20T00:19:46.584Z,24.50
2022-12-20T00:22:17.142Z,24.20
2022-12-20T00:24:46.077Z,25.90
2022-12-20T00:27:15.074Z,24.25
2022-12-20T00:29:43.738Z,24.80
2022-12-20T00:32:12.603Z,23.55
2022-12-20T00:34:41.317Z,24.60
2022-12-20T00:37:09.623Z,23.60
2022-12-20T00:39:40.778Z,24.50
2022-12-20T00:42:09.112Z,23.98
2022-12-20T00:44:37.838Z,25.08
2022-12-20T00:47:06.351Z,25.20
2022-12-20T00:49:35.115Z,22.83
2022-12-20T00:52:03.667Z,25.35
2022-12-20T00:54:32.419Z,24.20
2022-12-20T00:57:01.121Z,24.58
2022-12-20T00:59:30.881Z,25.63
2022-12-20T01:02:01.431Z,25.27
2022-12-20T01:04:30.172Z,25.13
2022-12-20T01:06:58.522Z,25.05
2022-12-20T01:09:27.140Z,24.95
2022-12-20T01:11:57.246Z,25.02
2022-12-20T01:14:25.910Z,25.42
2022-12-20T01:16:54.249Z,22.25
2022-12-20T01:19:22.926Z,24.58
2022-12-20T01:21:51.447Z,24.45
2022-12-20T01:24:20.573Z,24.70
2022-12-20T01:26:48.914Z,24.42
2022-12-20T01:29:18.308Z,24.42
2022-12-20T01:31:46.658Z,23.42
2022-12-20T01:34:15.771Z,23.08
2022-12-20T01:36:44.284Z,24.63
2022-12-20T01:39:16.667Z,22.48
2022-12-20T01:44:17.205Z,22.80
2022-12-20T01:46:47.639Z,24.35
2022-12-20T01:49:25.273Z,24.70
2022-12-20T01:51:58.888Z,23.73
2022-12-20T01:55:03.341Z,23.15
2022-12-20T01:57:45.227Z,22.20
2022-12-20T02:00:15.187Z,22.15
2022-12-20T02:02:46.924Z,22.38
2022-12-20T02:05:18.478Z,21.00
2022-12-20T02:07:50.443Z,16.67
2022-12-20T02:10:23.083Z,23.23
2022-12-20T02:12:59.439Z,25.02
2022-12-20T02:15:41.389Z,22.60
2022-12-20T02:18:28.460Z,22.50
2022-12-20T02:21:30.236Z,23.10
2022-12-20T02:24:24.535Z,20.15
2022-12-20T02:27:02.051Z,22.17
2022-12-20T02:29:37.627Z,22.45
2022-12-20T02:32:16.487Z,22.40
2022-12-20T02:34:46.213Z,21.92
2022-12-20T02:37:15.057Z,22.30
2022-12-20T02:39:46.677Z,22.95
2022-12-20T02:42:23.737Z,21.58
2022-12-20T02:45:17.232Z,21.33
2022-12-20T02:48:02.503Z,21.30
2022-12-20T02:50:43.699Z,21.60
2022-12-20T02:53:12.910Z,21.13
2022-12-20T02:55:54.642Z,20.98
2022-12-20T02:58:38.419Z,21.00
2022-12-20T03:01:11.273Z,20.45
2022-12-20T03:03:41.402Z,17.33
2022-12-20T03:06:09.752Z,20.00
2022-12-20T03:08:38.325Z,20.80
2022-12-20T03:11:06.589Z,21.08
2022-12-20T03:13:37.995Z,20.08
2022-12-20T03:16:11.018Z,20.60
2022-12-20T03:19:04.786Z,20.77
2022-12-20T03:21:33.042Z,20.63
2022-12-20T03:24:02.488Z,20.25
2022-12-20T03:26:31.098Z,21.75
2022-12-20T03:29:01.777Z,20.17
2022-12-20T03:31:30.147Z,20.40
2022-12-20T03:33:58.668Z,19.90
2022-12-20T03:36:27.359Z,21.27
2022-12-20T03:39:00.781Z,21.13
2022-12-20T03:41:32.472Z,19.95
2022-12-20T03:44:01.705Z,20.75
2022-12-20T03:46:29.976Z,20.30
2022-12-20T03:48:59.367Z,20.25
2022-12-20T03:51:27.903Z,19.00
2022-12-20T03:53:56.431Z,19.92
2022-12-20T03:56:32.985Z,20.88
2022-12-20T03:59:01.662Z,19.02
2022-12-20T04:01:30.625Z,19.15
2022-12-20T04:03:59.846Z,19.92
2022-12-20T04:06:29.470Z,19.65
2022-12-20T04:08:57.999Z,19.73
2022-12-20T04:11:31.749Z,19.25
2022-12-20T04:14:20.578Z,18.92
2022-12-20T04:17:00.023Z,19.73
2022-12-20T04:19:29.712Z,19.35
2022-12-20T04:22:04.744Z,19.88
2022-12-20T04:24:47.908Z,19.20
2022-12-20T04:27:27.361Z,19.55
2022-12-20T04:29:57.734Z,19.40
2022-12-20T04:32:29.732Z,19.10
2022-12-20T04:34:58.885Z,20.35
2022-12-20T04:37:27.921Z,18.23
2022-12-20T04:40:00.012Z,18.90
2022-12-20T04:43:01.063Z,17.35
2022-12-20T04:45:30.263Z,19.42
2022-12-20T04:50:51.012Z,18.83
2022-12-20T04:53:38.395Z,19.90
2022-12-20T04:56:07.300Z,19.08
2022-12-20T04:58:38.315Z,18.60
2022-12-20T05:01:12.086Z,19.20
2022-12-20T05:03:54.923Z,17.30
2022-12-20T05:06:26.897Z,19.58
2022-12-20T05:09:15.642Z,19.52
2022-12-20T05:11:47.588Z,18.40
2022-12-20T05:14:16.186Z,17.90
2022-12-20T05:16:51.055Z,19.15
2022-12-20T05:19:22.312Z,17.35
2022-12-20T05:22:35.183Z,20.48
2022-12-20T05:25:33.030Z,18.88
2022-12-20T05:28:10.064Z,18.92
2022-12-20T05:30:38.486Z,18.98
2022-12-20T05:35:39.803Z,18.02
2022-12-20T05:38:12.934Z,18.13
2022-12-20T05:41:37.039Z,16.73
2022-12-20T05:44:08.121Z,16.50
2022-12-20T05:46:42.984Z,18.85
2022-12-20T05:49:20.612Z,18.27
2022-12-20T05:52:03.566Z,17.42
2022-12-20T05:54:33.619Z,16.80
2022-12-20T05:57:12.018Z,17.63
2022-12-20T05:59:43.184Z,14.43
2022-12-20T06:02:17.669Z,17.65
2022-12-20T06:04:51.065Z,17.55
2022-12-20T06:07:23.485Z,17.85
2022-12-20T06:09:57.233Z,18.42
2022-12-20T06:12:35.615Z,17.70
2022-12-20T06:15:05.711Z,15.65
2022-12-20T06:17:39.761Z,18.38
2022-12-20T06:20:17.169Z,17.50
2022-12-20T06:22:51.150Z,17.15
2022-12-20T06:25:20.715Z,17.23
2022-12-20T06:27:52.255Z,17.50
2022-12-20T06:30:21.488Z,18.05
2022-12-20T06:33:13.062Z,17.33
2022-12-20T06:35:47.942Z,18.50
2022-12-20T06:38:18.802Z,17.40
2022-12-20T06:40:47.640Z,14.97
2022-12-20T06:43:16.601Z,17.13
2022-12-20T06:45:46.047Z,18.30
2022-12-20T06:48:15.661Z,16.30
2022-12-20T06:50:53.718Z,17.15
2022-12-20T06:53:24.920Z,16.45
2022-12-20T06:55:56.477Z,16.92
2022-12-20T06:58:27.987Z,17.38
2022-12-20T07:00:56.696Z,17.65
2022-12-20T07:03:26.197Z,16.73
2022-12-20T07:05:55.730Z,16.95
2022-12-20T07:08:29.691Z,16.17
2022-12-20T07:11:04.806Z,16.80
2022-12-20T07:13:48.823Z,17.08
2022-12-20T07:16:17.547Z,17.40
2022-12-20T07:18:50.446Z,15.98
2022-12-20T07:21:19.944Z,14.85
2022-12-20T07:23:48.685Z,17.23
2022-12-20T07:26:17.387Z,17.80
2022-12-20T07:28:49.977Z,16.00
2022-12-20T07:32:08.809Z,16.35
2022-12-20T07:34:44.089Z,17.13
2022-12-20T07:37:42.160Z,16.98
2022-12-20T07:40:35.619Z,18.35
2022-12-20T07:43:06.671Z,18.25
2022-12-20T07:45:35.763Z,18.35
2022-12-20T07:48:12.385Z,17.50
2022-12-20T07:50:42.295Z,17.83
2022-12-20T07:55:56.918Z,18.23
2022-12-20T07:58:27.139Z,17.80
2022-12-20T08:00:56.567Z,16.67
2022-12-20T08:03:52.603Z,17.02
2022-12-20T08:06:22.696Z,16.90
2022-12-20T08:08:57.389Z,17.73
2022-12-20T08:11:33.019Z,16.23
2022-12-20T08:14:02.623Z,17.77
2022-12-20T08:16:40.005Z,17.85
2022-12-20T08:19:09.064Z,18.50
2022-12-20T08:22:08.788Z,17.08
2022-12-20T08:24:37.675Z,17.30
2022-12-20T08:27:06.158Z,17.63
2022-12-20T08:29:35.083Z,17.45
2022-12-20T08:32:06.429Z,18.20
2022-12-20T08:34:35.158Z,17.08
2022-12-20T08:37:12.420Z,15.75
2022-12-20T08:39:46.339Z,13.63
2022-12-20T08:42:17.470Z,17.20
2022-12-20T08:44:46.139Z,17.35
2022-12-20T08:47:14.481Z,17.58
2022-12-20T08:49:47.657Z,17.20
2022-12-20T08:55:29.063Z,17.70
2022-12-20T09:01:30.093Z,17.13
2022-12-20T09:04:00.721Z,16.83
2022-12-20T09:06:30.015Z,17.83
2022-12-20T09:09:00.631Z,16.60
2022-12-20T09:11:33.981Z,17.55
2022-12-20T09:14:05.175Z,18.00
2022-12-20T09:16:37.156Z,17.45
2022-12-20T09:19:07.671Z,17.45
2022-12-20T09:21:36.687Z,16.73
2022-12-20T09:24:11.899Z,17.90
2022-12-20T09:26:45.698Z,16.63
2022-12-20T09:29:25.060Z,17.15
2022-12-20T09:31:56.856Z,16.90
2022-12-20T09:35:22.851Z,15.15
2022-12-20T09:38:42.371Z,18.17
2022-12-20T09:49:59.216Z,17.75
2022-12-20T10:18:01.832Z,17.67
2022-12-20T10:42:39.038Z,29.15
2022-12-20T10:59:22.324Z,18.92
2022-12-20T11:02:47.580Z,19.00
2022-12-20T11:05:26.749Z,19.55
2022-12-20T11:11:33.405Z,18.83
2022-12-20T11:14:17.800Z,17.52
2022-12-20T11:17:48.714Z,19.02
2022-12-20T11:20:50.240Z,18.88
2022-12-20T11:30:47.989Z,19.00
2022-12-20T11:34:31.838Z,19.55
2022-12-20T11:41:49.388Z,20.08
2022-12-20T11:45:56.590Z,19.10
2022-12-20T11:48:41.347Z,19.05
2022-12-20T11:53:15.148Z,17.58
2022-12-20T11:55:27.503Z,19.27
2022-12-20T11:58:20.227Z,18.63
2022-12-20T12:01:30.273Z,19.75
2022-12-20T12:04:44.883Z,19.10
2022-12-20T12:07:37.364Z,19.38
2022-12-20T12:10:18.254Z,18.35
2022-12-20T12:13:01.161Z,19.67
2022-12-20T12:16:01.855Z,20.92
2022-12-20T12:18:37.270Z,18.63
2022-12-20T12:21:09.977Z,21.17
2022-12-20T12:24:32.739Z,19.98
2022-12-20T12:27:01.762Z,19.52
2022-12-20T12:29:31.134Z,21.05
2022-12-20T12:32:11.862Z,19.65
2022-12-20T12:34:59.524Z,20.35
2022-12-20T12:37:50.219Z,20.35
2022-12-20T12:40:50.500Z,20.23
2022-12-20T12:43:53.290Z,19.90
2022-12-20T12:46:29.288Z,21.13
2022-12-20T12:49:17.776Z,20.85
2022-12-20T12:52:07.222Z,20.50
2022-12-20T12:54:42.906Z,20.35
2022-12-20T12:57:18.618Z,19.98
2022-12-20T12:59:53.976Z,20.45
2022-12-20T13:02:27.919Z,21.08
2022-12-20T13:05:34.942Z,43.15
2022-12-20T13:08:18.203Z,25.42
2022-12-20T13:10:47.876Z,22.27
2022-12-20T13:13:26.379Z,24.13
2022-12-20T13:16:10.255Z,22.73
2022-12-20T13:19:13.519Z,22.98
2022-12-20T13:24:50.845Z,24.00
2022-12-20T13:27:40.894Z,24.35
2022-12-20T13:30:25.549Z,24.37
2022-12-20T13:33:03.427Z,23.63
2022-12-20T13:35:42.512Z,24.50
2022-12-20T13:38:54.698Z,24.73
2022-12-20T13:41:24.387Z,23.67
2022-12-20T13:44:01.637Z,23.05
2022-12-20T13:46:47.210Z,22.15
2022-12-20T13:49:32.393Z,23.65
2022-12-20T13:52:34.278Z,23.58
2022-12-20T13:55:16.614Z,25.20
2022-12-20T13:58:11.795Z,24.02
2022-12-20T14:00:47.687Z,23.40
2022-12-20T14:03:32.751Z,25.85
2022-12-20T14:06:11.738Z,24.65
2022-12-20T14:08:46.855Z,26.10
2022-12-20T14:11:18.572Z,23.30
2022-12-20T14:17:33.691Z,23.27
2022-12-20T14:20:12.760Z,24.45
2022-12-20T14:23:14.739Z,25.00
2022-12-20T14:26:23.284Z,25.42
2022-12-20T14:28:54.980Z,29.25
2022-12-20T14:32:16.315Z,28.45
2022-12-20T14:34:48.201Z,27.63
2022-12-20T14:37:36.422Z,25.45
2022-12-20T14:40:25.622Z,26.48
2022-12-20T14:42:54.856Z,30.92
2022-12-20T14:45:30.122Z,25.60
2022-12-20T14:48:15.480Z,49.97
2022-12-20T14:50:53.719Z,50.85
2022-12-20T14:53:32.079Z,35.25
2022-12-20T14:56:00.534Z,30.27
2022-12-20T14:58:35.542Z,27.42
2022-12-20T15:01:15.924Z,25.35
2022-12-20T15:04:01.159Z,28.10
2022-12-20T15:06:34.698Z,27.38
2022-12-20T15:09:05.601Z,26.70
2022-12-20T15:11:43.318Z,25.52
2022-12-20T15:14:30.341Z,28.40
2022-12-20T15:16:58.942Z,27.00
2022-12-20T15:19:42.451Z,27.38
2022-12-20T15:22:16.598Z,25.90
2022-12-20T15:24:54.398Z,27.42
2022-12-20T15:27:33.817Z,27.73
2022-12-20T15:30:33.614Z,31.50
2022-12-20T15:33:17.661Z,32.20
2022-12-20T15:44:14.220Z,27.23
2022-12-20T15:46:59.555Z,29.67
2022-12-20T15:52:12.227Z,30.48
2022-12-20T15:53:40.249Z,29.60
2022-12-20T15:56:40.384Z,27.80
2022-12-20T16:00:01.727Z,26.88
2022-12-20T16:03:36.174Z,27.98
2022-12-20T16:06:20.937Z,29.88
2022-12-20T17:16:02.651Z,27.58
2022-12-20T17:18:49.325Z,29.35
2022-12-20T17:24:46.026Z,34.00
2022-12-20T17:27:31.083Z,29.25
2022-12-20T17:30:36.433Z,34.38
2022-12-20T17:33:06.783Z,34.95
2022-12-20T17:35:36.014Z,30.00
2022-12-20T17:38:07.098Z,30.70
2022-12-20T17:40:37.961Z,30.95
2022-12-20T17:43:08.176Z,30.90
2022-12-20T17:45:41.022Z,34.00
2022-12-20T17:48:43.458Z,32.50
2022-12-20T17:52:02.022Z,31.17
2022-12-20T17:54:40.533Z,29.58
2022-12-20T18:00:53.277Z,30.95
2022-12-20T18:06:18.131Z,31.80
2022-12-20T18:09:01.628Z,32.65
2022-12-20T18:11:33.054Z,35.75
2022-12-20T18:14:03.665Z,33.05
2022-12-20T18:16:43.057Z,31.23
2022-12-20T18:19:18.016Z,29.45
2022-12-20T18:22:02.819Z,31.15
2022-12-20T19:13:20.490Z,30.73
2022-12-20T19:20:58.193Z,28.33
2022-12-20T19:29:17.294Z,28.38
2022-12-20T19:31:47.312Z,30.42
2022-12-20T19:37:37.720Z,29.23
2022-12-20T19:40:56.970Z,29.35
2022-12-20T19:43:31.359Z,30.35
2022-12-20T19:46:51.523Z,29.63
2022-12-20T19:52:56.395Z,28.17
2022-12-20T20:00:35.825Z,26.75
2022-12-20T20:03:39.671Z,28.98
2022-12-20T20:12:20.979Z,28.00
2022-12-20T20:16:25.447Z,28.73
2022-12-20T20:18:35.836Z,28.80
2022-12-20T20:21:24.462Z,28.83
2022-12-20T20:24:29.194Z,28.35
2022-12-20T20:27:20.099Z,28.95
2022-12-20T20:30:21.462Z,25.98
2022-12-20T20:40:05.494Z,29.80
2022-12-20T20:42:34.183Z,30.25
2022-12-20T20:45:07.340Z,28.23
2022-12-20T20:47:37.082Z,29.27
2022-12-20T20:50:12.050Z,28.00
2022-12-20T20:52:40.728Z,27.95
2022-12-20T20:55:09.754Z,28.10
2022-12-20T20:57:38.276Z,28.38
2022-12-20T21:02:56.949Z,28.75
2022-12-20T21:08:15.883Z,28.73
2022-12-20T21:10:44.861Z,30.30
2022-12-20T21:13:20.411Z,30.90
2022-12-20T21:16:40.740Z,32.45
2022-12-20T21:19:22.837Z,26.92
2022-12-20T21:22:03.799Z,26.42
2022-12-20T21:25:55.724Z,29.63
2022-12-20T21:28:31.871Z,27.40
2022-12-20T21:31:31.336Z,28.17
2022-12-20T21:34:00.062Z,27.83
2022-12-20T21:36:28.555Z,28.02
2022-12-20T21:38:58.597Z,27.60
2022-12-20T21:41:31.586Z,28.15
2022-12-20T21:44:00.825Z,27.45
2022-12-20T21:46:31.755Z,28.20
2022-12-20T21:49:00.794Z,27.13
2022-12-20T21:51:30.360Z,27.95
2022-12-20T21:54:03.943Z,25.80
2022-12-20T21:56:36.951Z,28.67
2022-12-20T21:59:05.901Z,27.83
2022-12-20T22:01:34.270Z,27.23
2022-12-20T22:04:20.574Z,31.73
2022-12-20T22:06:53.994Z,31.23
2022-12-20T22:09:22.769Z,31.63
2022-12-20T22:11:51.081Z,28.20
2022-12-20T22:14:20.131Z,29.98
2022-12-20T22:16:48.754Z,28.98
2022-12-20T22:19:18.068Z,28.15
2022-12-20T22:21:47.421Z,27.80
2022-12-20T22:24:19.596Z,27.88
2022-12-20T22:26:50.635Z,27.92
2022-12-20T22:29:20.308Z,29.33
2022-12-20T22:31:48.789Z,31.13
2022-12-20T22:34:17.406Z,31.17
2022-12-20T22:36:46.720Z,28.70
2022-12-20T22:39:15.463Z,28.33
2022-12-20T22:41:44.947Z,27.67
2022-12-20T22:44:18.971Z,26.42
2022-12-20T22:46:47.192Z,27.45
2022-12-20T22:49:19.452Z,27.65
2022-12-20T22:51:59.349Z,27.27
2022-12-20T22:54:35.604Z,25.83
2022-12-20T22:57:04.103Z,25.67
2022-12-20T22:59:37.830Z,26.73
2022-12-20T23:02:12.299Z,26.23
2022-12-20T23:05:17.501Z,26.42
2022-12-20T23:07:45.862Z,24.95
2022-12-20T23:10:36.141Z,27.67
2022-12-20T23:13:23.032Z,26.85
2022-12-20T23:15:51.667Z,25.27
2022-12-20T23:18:20.010Z,25.00
2022-12-20T23:21:11.284Z,24.80
2022-12-20T23:23:39.594Z,26.00
2022-12-20T23:26:10.325Z,25.05
2022-12-20T23:28:38.695Z,25.02
2022-12-20T23:31:08.741Z,27.75
2022-12-20T23:33:37.648Z,26.60
2022-12-20T23:36:07.232Z,26.50
2022-12-20T23:38:37.127Z,25.92
2022-12-20T23:41:11.123Z,30.45
2022-12-20T23:43:39.694Z,26.23
2022-12-20T23:46:12.124Z,25.55
2022-12-20T23:51:09.947Z,24.85
2022-12-20T23:53:38.606Z,26.58
2022-12-20T23:56:16.879Z,26.02
2022-12-20T23:58:49.855Z,26.15
